createdAt,value
2022-11-16T00:02:59.923Z,97927.27
2022-11-16T00:08:03.408Z,97926.55
2022-11-16T00:13:06.849Z,97921.92
2022-11-16T00:18:10.362Z,97916.61
2022-11-16T00:23:13.794Z,97915.84
2022-11-16T00:28:17.216Z,97914.11
2022-11-16T00:33:20.704Z,97915.89
2022-11-16T00:38:24.226Z,97914.77
2022-11-16T00:43:27.766Z,97919.71
2022-11-16T00:48:31.555Z,97921.92
2022-11-16T00:53:35.416Z,97915.89
2022-11-16T00:58:39.066Z,97914.54
2022-11-16T01:03:42.557Z,97906.56
2022-11-16T01:08:45.981Z,97908.27
2022-11-16T01:13:49.549Z,97902.62
2022-11-16T01:18:52.972Z,97888.46
2022-11-16T01:23:57.139Z,97875.41
2022-11-16T01:29:00.611Z,97863.66
2022-11-16T01:34:04.033Z,97862.01
2022-11-16T01:39:07.459Z,97863.48
2022-11-16T01:44:10.868Z,97855.17
2022-11-16T01:49:14.303Z,97847.21
2022-11-16T01:54:17.749Z,97841.27
2022-11-16T01:59:21.260Z,97830.13
2022-11-16T02:04:24.771Z,97828.27
2022-11-16T02:09:46.188Z,97827.70
2022-11-16T02:14:49.678Z,97825.58
2022-11-16T02:19:53.085Z,97829.45
2022-11-16T02:24:56.518Z,97828.07
2022-11-16T02:30:00.001Z,97817.69
2022-11-16T02:35:03.421Z,97805.90
2022-11-16T02:40:07.920Z,97802.39
2022-11-16T02:45:11.325Z,97801.21
2022-11-16T02:50:14.717Z,97794.31
2022-11-16T02:55:18.125Z,97792.90
2022-11-16T03:00:21.537Z,97798.38
2022-11-16T03:05:32.186Z,97800.20
2022-11-16T03:10:53.301Z,97797.96
2022-11-16T03:15:56.817Z,97796.59
2022-11-16T03:21:00.240Z,97794.95
2022-11-16T03:26:03.665Z,97788.48
2022-11-16T03:31:07.073Z,97787.60
2022-11-16T03:36:10.472Z,97786.41
2022-11-16T03:41:13.873Z,97781.33
2022-11-16T03:46:17.274Z,97771.54
2022-11-16T03:51:20.665Z,97763.45
2022-11-16T03:56:24.157Z,97755.71
2022-11-16T04:01:27.646Z,97751.33
2022-11-16T04:06:48.951Z,97746.02
2022-11-16T04:12:10.504Z,97736.23
2022-11-16T04:17:31.632Z,97734.15
2022-11-16T04:22:54.013Z,97730.04
2022-11-16T04:28:16.596Z,97723.83
2022-11-16T04:33:38.209Z,97720.80
2022-11-16T04:38:41.633Z,97716.34
2022-11-16T04:43:45.045Z,97715.04
2022-11-16T04:48:48.459Z,97710.61
2022-11-16T04:53:51.885Z,97702.06
2022-11-16T04:58:55.317Z,97697.46
2022-11-16T05:03:58.733Z,97688.02
2022-11-16T05:09:02.249Z,97682.11
2022-11-16T05:14:06.329Z,97676.56
2022-11-16T05:19:27.436Z,97676.33
2022-11-16T05:24:36.988Z,97674.25
2022-11-16T05:29:40.414Z,97680.97
2022-11-16T05:34:43.832Z,97674.52
2022-11-16T05:39:47.230Z,97674.86
2022-11-16T05:44:50.655Z,97672.59
2022-11-16T05:49:54.081Z,97663.35
2022-11-16T05:54:57.466Z,97663.95
2022-11-16T06:00:01.041Z,97664.54
2022-11-16T06:05:04.469Z,97664.29
2022-11-16T06:10:07.889Z,97664.63
2022-11-16T06:15:11.298Z,97662.45
2022-11-16T06:20:14.721Z,97659.80
2022-11-16T06:25:18.157Z,97660.92
2022-11-16T06:30:21.618Z,97659.28
2022-11-16T06:35:25.028Z,97656.20
2022-11-16T06:40:28.455Z,97661.48
2022-11-16T06:45:31.863Z,97660.90
2022-11-16T06:50:37.293Z,97654.78
2022-11-16T06:55:40.702Z,97654.48
2022-11-16T07:00:44.185Z,97649.30
2022-11-16T07:05:47.660Z,97654.20
2022-11-16T07:10:51.051Z,97647.72
2022-11-16T07:15:54.509Z,97638.77
2022-11-16T07:20:58.930Z,97639.09
2022-11-16T07:26:02.358Z,97639.28
2022-11-16T07:31:05.784Z,97638.85
2022-11-16T07:36:09.169Z,97637.00
2022-11-16T07:41:13.683Z,97637.02
2022-11-16T07:46:45.193Z,97636.15
2022-11-16T07:51:40.544Z,97627.15
2022-11-16T07:56:43.953Z,97622.02
2022-11-16T08:01:47.467Z,97620.04
2022-11-16T08:06:53.132Z,97623.25
2022-11-16T08:11:56.730Z,97620.91
2022-11-16T08:17:00.153Z,97617.85
2022-11-16T08:22:03.641Z,97618.23
2022-11-16T08:27:07.108Z,97608.44
2022-11-16T08:32:10.522Z,97602.39
2022-11-16T08:37:14.009Z,97596.55
2022-11-16T08:42:17.491Z,97597.83
2022-11-16T08:47:20.953Z,97605.32
2022-11-16T08:52:24.371Z,97599.83
2022-11-16T08:57:27.829Z,97605.04
2022-11-16T09:02:31.818Z,97603.05
2022-11-16T09:07:35.350Z,97602.50
2022-11-16T09:12:39.001Z,97605.35
2022-11-16T09:17:42.400Z,97598.09
2022-11-16T09:22:45.840Z,97596.02
2022-11-16T09:27:49.260Z,97598.19
2022-11-16T09:32:52.746Z,97595.75
2022-11-16T09:37:56.269Z,97594.09
2022-11-16T09:42:59.785Z,97585.20
2022-11-16T09:48:03.286Z,97578.23
2022-11-16T09:53:06.815Z,97572.52
2022-11-16T09:58:10.250Z,97567.71
2022-11-16T10:03:14.010Z,97562.37
2022-11-16T10:08:17.488Z,97560.33
2022-11-16T10:13:22.101Z,97560.81
2022-11-16T10:18:25.776Z,97554.03
2022-11-16T10:23:29.181Z,97552.42
2022-11-16T10:28:32.776Z,97555.15
2022-11-16T10:33:37.125Z,97553.27
2022-11-16T10:38:41.006Z,97546.57
2022-11-16T10:43:44.409Z,97539.98
2022-11-16T10:48:47.815Z,97539.29
2022-11-16T10:53:53.112Z,97535.96
2022-11-16T10:58:56.559Z,97530.67
2022-11-16T11:04:01.250Z,97529.03
2022-11-16T11:09:04.671Z,97525.77
2022-11-16T11:14:08.073Z,97521.51
2022-11-16T11:19:11.586Z,97520.44
2022-11-16T11:24:42.827Z,97520.98
2022-11-16T11:29:38.840Z,97523.82
2022-11-16T11:34:42.806Z,97527.84
2022-11-16T11:39:46.276Z,97523.08
2022-11-16T11:44:51.940Z,97525.16
2022-11-16T11:49:55.430Z,97530.04
2022-11-16T11:54:58.882Z,97522.15
2022-11-16T12:00:02.316Z,97519.73
2022-11-16T12:05:05.907Z,97513.72
2022-11-16T12:10:09.365Z,97519.94
2022-11-16T12:15:12.795Z,97514.60
2022-11-16T12:20:16.301Z,97514.14
2022-11-16T12:25:19.713Z,97509.46
2022-11-16T12:30:23.136Z,97504.59
2022-11-16T12:35:26.635Z,97496.63
2022-11-16T12:40:30.042Z,97498.89
2022-11-16T12:45:33.462Z,97495.15
2022-11-16T12:50:36.868Z,97490.28
2022-11-16T12:55:40.388Z,97487.09
2022-11-16T13:00:44.759Z,97484.60
2022-11-16T13:05:48.211Z,97481.00
2022-11-16T13:10:51.764Z,97481.79
2022-11-16T13:15:55.203Z,97482.77
2022-11-16T13:20:58.626Z,97483.28
2022-11-16T13:26:02.088Z,97483.24
2022-11-16T13:31:05.590Z,97482.23
2022-11-16T13:36:09.051Z,97481.91
2022-11-16T13:41:12.515Z,97480.98
2022-11-16T13:46:54.843Z,97480.48
2022-11-16T13:51:51.754Z,97482.42
2022-11-16T13:56:55.167Z,97480.64
2022-11-16T14:01:58.764Z,97475.23
2022-11-16T14:07:02.299Z,97464.92
2022-11-16T14:12:05.792Z,97468.02
2022-11-16T14:17:09.612Z,97468.86
2022-11-16T14:22:13.098Z,97461.54
2022-11-16T14:27:17.025Z,97463.58
2022-11-16T14:32:20.454Z,97462.20
2022-11-16T14:37:24.489Z,97456.33
2022-11-16T14:42:37.980Z,97451.39
2022-11-16T14:47:46.535Z,97450.18
2022-11-16T14:52:49.986Z,97448.77
2022-11-16T14:57:53.389Z,97450.84
2022-11-16T15:03:02.346Z,97447.48
2022-11-16T15:08:06.338Z,97443.08
2022-11-16T15:13:09.735Z,97439.74
2022-11-16T15:18:13.153Z,97442.23
2022-11-16T15:23:16.557Z,97448.92
2022-11-16T15:28:19.986Z,97450.20
2022-11-16T15:33:23.389Z,97444.55
2022-11-16T15:38:26.788Z,97446.08
2022-11-16T15:43:30.244Z,97445.55
2022-11-16T15:48:34.006Z,97449.09
2022-11-16T15:53:37.793Z,97451.75
2022-11-16T15:58:41.348Z,97453.69
2022-11-16T16:03:44.773Z,97455.69
2022-11-16T16:08:48.187Z,97464.55
2022-11-16T16:13:51.616Z,97469.62
2022-11-16T16:18:55.054Z,97476.48
2022-11-16T16:23:58.488Z,97478.64
2022-11-16T16:29:01.882Z,97476.96
2022-11-16T16:34:05.284Z,97479.23
2022-11-16T16:39:08.718Z,97481.73
2022-11-16T16:44:12.118Z,97478.55
2022-11-16T16:49:15.520Z,97474.27
2022-11-16T16:54:20.012Z,97473.28
2022-11-16T16:59:23.421Z,97478.54
2022-11-16T17:04:26.861Z,97471.14
2022-11-16T17:09:30.470Z,97472.39
2022-11-16T17:14:33.892Z,97476.30
2022-11-16T17:19:37.381Z,97473.89
2022-11-16T17:24:40.797Z,97473.69
2022-11-16T17:29:44.196Z,97478.84
2022-11-16T17:34:47.590Z,97477.38
2022-11-16T17:39:50.983Z,97480.11
2022-11-16T17:44:55.180Z,97477.73
2022-11-16T17:50:01.853Z,97473.06
2022-11-16T18:01:12.240Z,97480.89
2022-11-16T18:06:15.750Z,97479.92
2022-11-16T18:11:19.204Z,97480.38
2022-11-16T18:16:22.616Z,97486.19
2022-11-16T18:21:25.999Z,97488.99
2022-11-16T18:26:29.455Z,97490.26
2022-11-16T18:31:34.009Z,97492.85
2022-11-16T18:36:37.441Z,97497.54
2022-11-16T18:41:40.845Z,97492.34
2022-11-16T18:46:44.265Z,97492.85
2022-11-16T18:51:47.685Z,97489.19
2022-11-16T18:56:51.089Z,97490.34
2022-11-16T19:01:54.493Z,97495.84
2022-11-16T19:06:58.027Z,97496.33
2022-11-16T19:12:01.568Z,97496.63
2022-11-16T19:17:05.296Z,97494.24
2022-11-16T19:22:08.812Z,97493.48
2022-11-16T19:27:13.213Z,97495.55
2022-11-16T19:32:16.698Z,97495.02
2022-11-16T19:37:20.100Z,97499.53
2022-11-16T19:42:23.521Z,97499.34
2022-11-16T19:47:26.985Z,97503.81
2022-11-16T19:52:32.440Z,97504.77
2022-11-16T19:57:35.840Z,97505.88
2022-11-16T20:02:39.245Z,97502.75
2022-11-16T20:07:44.632Z,97504.16
2022-11-16T20:12:49.708Z,97503.45
2022-11-16T20:17:56.282Z,97505.64
2022-11-16T20:22:59.668Z,97517.52
2022-11-16T20:28:03.112Z,97515.83
2022-11-16T20:33:06.521Z,97510.39
2022-11-16T20:38:09.917Z,97512.92
2022-11-16T20:43:14.466Z,97511.21
2022-11-16T20:48:17.866Z,97511.34
2022-11-16T20:53:22.350Z,97515.65
2022-11-16T20:58:25.778Z,97515.55
2022-11-16T21:03:29.193Z,97514.85
2022-11-16T21:08:32.627Z,97512.45
2022-11-16T21:13:53.921Z,97514.92
2022-11-16T21:18:57.354Z,97518.45
2022-11-16T21:24:00.760Z,97511.55
2022-11-16T21:29:04.275Z,97503.72
2022-11-16T21:34:07.792Z,97493.05
2022-11-16T21:39:11.204Z,97495.17
2022-11-16T21:44:14.596Z,97495.31
2022-11-16T21:49:18.206Z,97497.27
2022-11-16T21:54:41.586Z,97491.41
2022-11-16T21:59:45.130Z,97499.27
2022-11-16T22:05:06.124Z,97504.92
2022-11-16T22:10:09.526Z,97506.71
2022-11-16T22:15:13.102Z,97509.04
2022-11-16T22:20:16.545Z,97507.97
2022-11-16T22:25:20.039Z,97502.02
2022-11-16T22:30:23.527Z,97508.20
2022-11-16T22:35:27.061Z,97514.17
2022-11-16T22:40:30.493Z,97514.70
2022-11-16T22:45:33.989Z,97517.27
2022-11-16T22:50:37.464Z,97523.56
2022-11-16T22:55:40.949Z,97522.97
2022-11-16T23:00:44.545Z,97515.65
2022-11-16T23:05:47.980Z,97505.00
2022-11-16T23:11:05.302Z,97501.68
2022-11-16T23:16:08.813Z,97504.70
2022-11-16T23:21:30.284Z,97508.23
2022-11-16T23:26:51.690Z,97506.54
2022-11-16T23:31:55.214Z,97499.77
2022-11-16T23:36:58.816Z,97491.45
2022-11-16T23:42:21.362Z,97489.80
2022-11-16T23:47:24.845Z,97495.56
2022-11-16T23:52:28.428Z,97493.04
2022-11-16T23:57:31.872Z,97485.87
